sensor_id;sensor_type;location;lat;lon;timestamp;P1;durP1;ratioP1;P2;durP2;ratioP2
41627;SDS011;27321;50.816;6.054;2023-06-22T00:02:09;4.95;;;4.55;;
41627;SDS011;27321;50.816;6.054;2023-06-22T00:05:09;4.50;;;3.97;;
41627;SDS011;27321;50.816;6.054;2023-06-22T00:08:10;4.47;;;4.13;;
41627;SDS011;27321;50.816;6.054;2023-06-22T00:14:13;4.55;;;4.25;;
41627;SDS011;27321;50.816;6.054;2023-06-22T00:17:14;4.75;;;4.35;;
41627;SDS011;27321;50.816;6.054;2023-06-22T00:20:15;6.15;;;4.85;;
41627;SDS011;27321;50.816;6.054;2023-06-22T00:23:16;4.88;;;4.47;;
41627;SDS011;27321;50.816;6.054;2023-06-22T00:26:18;4.72;;;4.32;;
41627;SDS011;27321;50.816;6.054;2023-06-22T00:29:20;4.75;;;4.35;;
41627;SDS011;27321;50.816;6.054;2023-06-22T00:32:21;4.65;;;4.25;;
41627;SDS011;27321;50.816;6.054;2023-06-22T00:35:22;5.57;;;4.88;;
41627;SDS011;27321;50.816;6.054;2023-06-22T00:38:29;4.85;;;4.40;;
41627;SDS011;27321;50.816;6.054;2023-06-22T00:41:30;4.78;;;4.38;;
41627;SDS011;27321;50.816;6.054;2023-06-22T00:44:31;5.07;;;4.68;;
41627;SDS011;27321;50.816;6.054;2023-06-22T00:47:34;4.90;;;4.50;;
41627;SDS011;27321;50.816;6.054;2023-06-22T00:50:38;5.05;;;4.55;;
41627;SDS011;27321;50.816;6.054;2023-06-22T00:53:39;5.32;;;4.53;;
41627;SDS011;27321;50.816;6.054;2023-06-22T00:56:42;5.50;;;4.40;;
41627;SDS011;27321;50.816;6.054;2023-06-22T00:59:43;4.80;;;4.40;;
41627;SDS011;27321;50.816;6.054;2023-06-22T01:02:46;4.60;;;4.20;;
41627;SDS011;27321;50.816;6.054;2023-06-22T01:05:52;4.40;;;4.10;;
41627;SDS011;27321;50.816;6.054;2023-06-22T01:09:05;5.30;;;4.80;;
41627;SDS011;27321;50.816;6.054;2023-06-22T01:12:16;5.13;;;4.68;;
41627;SDS011;27321;50.816;6.054;2023-06-22T01:15:28;4.82;;;4.43;;
41627;SDS011;27321;50.816;6.054;2023-06-22T01:18:46;5.15;;;4.70;;
41627;SDS011;27321;50.816;6.054;2023-06-22T01:21:51;4.75;;;4.35;;
41627;SDS011;27321;50.816;6.054;2023-06-22T01:28:42;5.20;;;4.80;;
41627;SDS011;27321;50.816;6.054;2023-06-22T01:31:48;4.90;;;4.50;;
41627;SDS011;27321;50.816;6.054;2023-06-22T01:34:50;5.13;;;4.63;;
41627;SDS011;27321;50.816;6.054;2023-06-22T01:40:53;6.22;;;4.28;;
41627;SDS011;27321;50.816;6.054;2023-06-22T01:43:55;4.43;;;4.07;;
41627;SDS011;27321;50.816;6.054;2023-06-22T01:46:56;4.55;;;4.15;;
41627;SDS011;27321;50.816;6.054;2023-06-22T01:49:58;4.72;;;4.35;;
41627;SDS011;27321;50.816;6.054;2023-06-22T01:52:59;4.45;;;4.05;;
41627;SDS011;27321;50.816;6.054;2023-06-22T01:56:00;4.93;;;4.53;;
41627;SDS011;27321;50.816;6.054;2023-06-22T01:59:18;4.07;;;3.78;;
41627;SDS011;27321;50.816;6.054;2023-06-22T02:02:29;4.40;;;4.00;;
41627;SDS011;27321;50.816;6.054;2023-06-22T02:05:40;4.35;;;3.97;;
41627;SDS011;27321;50.816;6.054;2023-06-22T02:08:51;4.35;;;3.97;;
41627;SDS011;27321;50.816;6.054;2023-06-22T02:11:58;4.95;;;4.45;;
41627;SDS011;27321;50.816;6.054;2023-06-22T02:15:02;4.43;;;4.10;;
41627;SDS011;27321;50.816;6.054;2023-06-22T02:18:05;3.88;;;3.58;;
41627;SDS011;27321;50.816;6.054;2023-06-22T02:21:07;4.20;;;3.80;;
41627;SDS011;27321;50.816;6.054;2023-06-22T02:24:08;4.20;;;3.80;;
41627;SDS011;27321;50.816;6.054;2023-06-22T02:27:09;3.97;;;3.63;;
41627;SDS011;27321;50.816;6.054;2023-06-22T02:30:11;4.43;;;3.85;;
41627;SDS011;27321;50.816;6.054;2023-06-22T02:33:15;4.35;;;3.95;;
41627;SDS011;27321;50.816;6.054;2023-06-22T02:36:16;4.45;;;4.05;;
41627;SDS011;27321;50.816;6.054;2023-06-22T02:39:22;4.25;;;3.90;;
41627;SDS011;27321;50.816;6.054;2023-06-22T02:42:24;4.10;;;3.70;;
41627;SDS011;27321;50.816;6.054;2023-06-22T02:45:25;5.20;;;4.70;;
41627;SDS011;27321;50.816;6.054;2023-06-22T02:48:26;5.50;;;4.68;;
41627;SDS011;27321;50.816;6.054;2023-06-22T02:51:27;6.20;;;5.60;;
41627;SDS011;27321;50.816;6.054;2023-06-22T02:54:32;6.13;;;5.53;;
41627;SDS011;27321;50.816;6.054;2023-06-22T02:57:34;9.10;;;5.70;;
41627;SDS011;27321;50.816;6.054;2023-06-22T03:00:35;5.63;;;4.45;;
41627;SDS011;27321;50.816;6.054;2023-06-22T03:03:36;5.43;;;4.93;;
41627;SDS011;27321;50.816;6.054;2023-06-22T03:06:37;6.47;;;5.78;;
41627;SDS011;27321;50.816;6.054;2023-06-22T03:09:41;5.40;;;4.90;;
41627;SDS011;27321;50.816;6.054;2023-06-22T03:12:44;6.45;;;5.15;;
41627;SDS011;27321;50.816;6.054;2023-06-22T03:15:45;5.60;;;4.88;;
41627;SDS011;27321;50.816;6.054;2023-06-22T03:18:46;5.93;;;5.32;;
41627;SDS011;27321;50.816;6.054;2023-06-22T03:21:48;6.95;;;5.35;;
41627;SDS011;27321;50.816;6.054;2023-06-22T03:24:49;5.95;;;5.05;;
41627;SDS011;27321;50.816;6.054;2023-06-22T03:27:50;5.88;;;4.80;;
41627;SDS011;27321;50.816;6.054;2023-06-22T03:30:50;5.28;;;4.78;;
41627;SDS011;27321;50.816;6.054;2023-06-22T03:33:52;5.25;;;4.75;;
41627;SDS011;27321;50.816;6.054;2023-06-22T03:36:53;6.43;;;5.70;;
41627;SDS011;27321;50.816;6.054;2023-06-22T03:39:53;6.28;;;4.85;;
41627;SDS011;27321;50.816;6.054;2023-06-22T03:42:55;5.40;;;4.68;;
41627;SDS011;27321;50.816;6.054;2023-06-22T03:45:56;5.03;;;4.57;;
41627;SDS011;27321;50.816;6.054;2023-06-22T03:48:57;5.25;;;4.72;;
41627;SDS011;27321;50.816;6.054;2023-06-22T03:51:58;4.90;;;4.43;;
41627;SDS011;27321;50.816;6.054;2023-06-22T03:55:00;4.80;;;4.40;;
41627;SDS011;27321;50.816;6.054;2023-06-22T03:58:01;5.63;;;4.72;;
41627;SDS011;27321;50.816;6.054;2023-06-22T04:01:05;6.03;;;3.95;;
41627;SDS011;27321;50.816;6.054;2023-06-22T04:04:06;4.82;;;4.32;;
41627;SDS011;27321;50.816;6.054;2023-06-22T04:07:07;5.30;;;4.80;;
41627;SDS011;27321;50.816;6.054;2023-06-22T04:10:08;5.50;;;4.90;;
41627;SDS011;27321;50.816;6.054;2023-06-22T04:13:10;5.80;;;4.70;;
41627;SDS011;27321;50.816;6.054;2023-06-22T04:16:11;7.13;;;5.47;;
41627;SDS011;27321;50.816;6.054;2023-06-22T04:19:12;5.30;;;4.80;;
41627;SDS011;27321;50.816;6.054;2023-06-22T04:22:16;5.03;;;4.53;;
41627;SDS011;27321;50.816;6.054;2023-06-22T04:25:17;4.90;;;3.95;;
41627;SDS011;27321;50.816;6.054;2023-06-22T04:28:18;4.38;;;3.97;;
41627;SDS011;27321;50.816;6.054;2023-06-22T04:31:19;5.35;;;3.90;;
41627;SDS011;27321;50.816;6.054;2023-06-22T04:34:20;6.78;;;4.97;;
41627;SDS011;27321;50.816;6.054;2023-06-22T04:37:21;9.32;;;6.38;;
41627;SDS011;27321;50.816;6.054;2023-06-22T04:40:23;6.93;;;4.78;;
41627;SDS011;27321;50.816;6.054;2023-06-22T04:43:24;8.07;;;5.57;;
41627;SDS011;27321;50.816;6.054;2023-06-22T04:46:25;5.03;;;4.53;;
41627;SDS011;27321;50.816;6.054;2023-06-22T04:49:26;4.15;;;3.75;;
41627;SDS011;27321;50.816;6.054;2023-06-22T04:52:32;4.07;;;3.75;;
41627;SDS011;27321;50.816;6.054;2023-06-22T04:55:33;4.55;;;4.15;;
41627;SDS011;27321;50.816;6.054;2023-06-22T04:58:34;4.95;;;4.55;;
41627;SDS011;27321;50.816;6.054;2023-06-22T05:01:35;5.25;;;4.38;;
41627;SDS011;27321;50.816;6.054;2023-06-22T05:04:36;3.85;;;3.45;;
41627;SDS011;27321;50.816;6.054;2023-06-22T05:07:45;6.05;;;5.05;;
41627;SDS011;27321;50.816;6.054;2023-06-22T05:10:48;5.50;;;4.85;;
41627;SDS011;27321;50.816;6.054;2023-06-22T05:13:49;5.68;;;5.07;;
41627;SDS011;27321;50.816;6.054;2023-06-22T05:16:50;5.57;;;5.07;;
41627;SDS011;27321;50.816;6.054;2023-06-22T05:19:52;7.50;;;6.10;;
41627;SDS011;27321;50.816;6.054;2023-06-22T05:25:54;6.60;;;5.03;;
41627;SDS011;27321;50.816;6.054;2023-06-22T05:28:57;5.63;;;5.13;;
41627;SDS011;27321;50.816;6.054;2023-06-22T05:32:01;5.95;;;5.30;;
41627;SDS011;27321;50.816;6.054;2023-06-22T05:35:02;7.97;;;7.15;;
41627;SDS011;27321;50.816;6.054;2023-06-22T05:38:04;6.70;;;6.03;;
41627;SDS011;27321;50.816;6.054;2023-06-22T05:41:05;8.05;;;7.25;;
41627;SDS011;27321;50.816;6.054;2023-06-22T05:44:07;12.02;;;8.73;;
41627;SDS011;27321;50.816;6.054;2023-06-22T05:47:08;9.50;;;7.70;;
41627;SDS011;27321;50.816;6.054;2023-06-22T05:50:09;8.73;;;5.80;;
41627;SDS011;27321;50.816;6.054;2023-06-22T05:53:10;6.25;;;5.65;;
41627;SDS011;27321;50.816;6.054;2023-06-22T05:56:11;7.57;;;5.90;;
41627;SDS011;27321;50.816;6.054;2023-06-22T05:59:12;7.00;;;6.30;;
41627;SDS011;27321;50.816;6.054;2023-06-22T06:02:13;9.00;;;7.00;;
41627;SDS011;27321;50.816;6.054;2023-06-22T06:05:14;6.95;;;6.05;;
41627;SDS011;27321;50.816;6.054;2023-06-22T06:08:15;6.63;;;5.80;;
41627;SDS011;27321;50.816;6.054;2023-06-22T06:11:16;7.38;;;5.97;;
41627;SDS011;27321;50.816;6.054;2023-06-22T06:14:17;5.95;;;5.38;;
41627;SDS011;27321;50.816;6.054;2023-06-22T06:17:18;9.45;;;7.45;;
41627;SDS011;27321;50.816;6.054;2023-06-22T06:20:19;6.18;;;5.57;;
41627;SDS011;27321;50.816;6.054;2023-06-22T06:23:23;6.88;;;6.15;;
41627;SDS011;27321;50.816;6.054;2023-06-22T06:26:24;9.13;;;6.32;;
41627;SDS011;27321;50.816;6.054;2023-06-22T06:29:28;8.70;;;7.38;;
41627;SDS011;27321;50.816;6.054;2023-06-22T06:32:29;7.03;;;6.40;;
41627;SDS011;27321;50.816;6.054;2023-06-22T06:35:30;8.00;;;6.70;;
41627;SDS011;27321;50.816;6.054;2023-06-22T06:38:31;8.43;;;7.47;;
41627;SDS011;27321;50.816;6.054;2023-06-22T06:41:32;7.35;;;6.57;;
41627;SDS011;27321;50.816;6.054;2023-06-22T06:44:34;11.38;;;8.63;;
41627;SDS011;27321;50.816;6.054;2023-06-22T06:47:37;7.25;;;6.55;;
41627;SDS011;27321;50.816;6.054;2023-06-22T06:50:39;7.28;;;6.57;;
41627;SDS011;27321;50.816;6.054;2023-06-22T06:53:40;8.95;;;8.00;;
41627;SDS011;27321;50.816;6.054;2023-06-22T06:56:41;9.10;;;6.43;;
41627;SDS011;27321;50.816;6.054;2023-06-22T06:59:48;10.32;;;7.63;;
41627;SDS011;27321;50.816;6.054;2023-06-22T07:02:49;11.55;;;8.15;;
41627;SDS011;27321;50.816;6.054;2023-06-22T07:05:50;14.18;;;8.35;;
41627;SDS011;27321;50.816;6.054;2023-06-22T07:08:51;11.25;;;8.90;;
41627;SDS011;27321;50.816;6.054;2023-06-22T07:11:52;10.18;;;8.60;;
41627;SDS011;27321;50.816;6.054;2023-06-22T07:14:53;9.75;;;8.65;;
41627;SDS011;27321;50.816;6.054;2023-06-22T07:18:05;11.57;;;10.07;;
41627;SDS011;27321;50.816;6.054;2023-06-22T07:21:06;9.65;;;8.30;;
41627;SDS011;27321;50.816;6.054;2023-06-22T07:24:07;10.32;;;8.50;;
41627;SDS011;27321;50.816;6.054;2023-06-22T07:27:08;8.77;;;7.85;;
41627;SDS011;27321;50.816;6.054;2023-06-22T07:30:11;10.45;;;8.20;;
41627;SDS011;27321;50.816;6.054;2023-06-22T07:33:13;11.85;;;9.52;;
41627;SDS011;27321;50.816;6.054;2023-06-22T07:36:14;9.48;;;8.40;;
41627;SDS011;27321;50.816;6.054;2023-06-22T07:39:16;13.95;;;9.02;;
41627;SDS011;27321;50.816;6.054;2023-06-22T07:42:17;9.27;;;8.02;;
41627;SDS011;27321;50.816;6.054;2023-06-22T07:45:22;10.88;;;8.82;;
41627;SDS011;27321;50.816;6.054;2023-06-22T07:48:23;9.93;;;7.15;;
41627;SDS011;27321;50.816;6.054;2023-06-22T07:51:24;10.18;;;8.88;;
41627;SDS011;27321;50.816;6.054;2023-06-22T07:54:24;9.15;;;7.97;;
41627;SDS011;27321;50.816;6.054;2023-06-22T07:57:25;12.30;;;7.68;;
41627;SDS011;27321;50.816;6.054;2023-06-22T08:00:33;11.15;;;8.38;;
41627;SDS011;27321;50.816;6.054;2023-06-22T08:03:34;10.70;;;9.52;;
41627;SDS011;27321;50.816;6.054;2023-06-22T08:06:35;10.80;;;8.23;;
41627;SDS011;27321;50.816;6.054;2023-06-22T08:09:36;8.95;;;8.00;;
41627;SDS011;27321;50.816;6.054;2023-06-22T08:12:37;12.85;;;8.45;;
41627;SDS011;27321;50.816;6.054;2023-06-22T08:15:39;12.20;;;8.07;;
41627;SDS011;27321;50.816;6.054;2023-06-22T08:18:40;9.10;;;8.07;;
41627;SDS011;27321;50.816;6.054;2023-06-22T08:21:41;8.43;;;7.13;;
41627;SDS011;27321;50.816;6.054;2023-06-22T08:24:42;9.05;;;8.15;;
41627;SDS011;27321;50.816;6.054;2023-06-22T08:30:48;8.95;;;8.13;;
41627;SDS011;27321;50.816;6.054;2023-06-22T08:33:49;10.50;;;9.43;;
41627;SDS011;27321;50.816;6.054;2023-06-22T08:39:52;12.25;;;10.95;;
41627;SDS011;27321;50.816;6.054;2023-06-22T08:42:54;12.48;;;9.93;;
41627;SDS011;27321;50.816;6.054;2023-06-22T08:48:59;11.88;;;9.75;;
41627;SDS011;27321;50.816;6.054;2023-06-22T08:52:00;10.85;;;9.75;;
41627;SDS011;27321;50.816;6.054;2023-06-22T08:58:02;9.48;;;8.30;;
41627;SDS011;27321;50.816;6.054;2023-06-22T09:01:04;10.45;;;9.45;;
41627;SDS011;27321;50.816;6.054;2023-06-22T09:04:08;11.15;;;8.90;;
41627;SDS011;27321;50.816;6.054;2023-06-22T09:07:09;11.07;;;9.82;;
41627;SDS011;27321;50.816;6.054;2023-06-22T09:10:11;10.38;;;9.27;;
41627;SDS011;27321;50.816;6.054;2023-06-22T09:16:13;13.18;;;10.20;;
41627;SDS011;27321;50.816;6.054;2023-06-22T09:19:14;9.85;;;8.73;;
41627;SDS011;27321;50.816;6.054;2023-06-22T09:25:16;12.18;;;10.85;;
41627;SDS011;27321;50.816;6.054;2023-06-22T09:28:18;11.00;;;8.07;;
41627;SDS011;27321;50.816;6.054;2023-06-22T09:34:25;10.05;;;9.02;;
41627;SDS011;27321;50.816;6.054;2023-06-22T09:40:27;11.15;;;8.32;;
41627;SDS011;27321;50.816;6.054;2023-06-22T09:43:29;12.05;;;8.85;;
41627;SDS011;27321;50.816;6.054;2023-06-22T09:46:32;9.57;;;8.10;;
41627;SDS011;27321;50.816;6.054;2023-06-22T09:49:33;10.02;;;7.25;;
41627;SDS011;27321;50.816;6.054;2023-06-22T09:55:34;8.93;;;7.78;;
41627;SDS011;27321;50.816;6.054;2023-06-22T09:58:35;8.40;;;7.40;;
41627;SDS011;27321;50.816;6.054;2023-06-22T10:01:37;8.57;;;7.30;;
41627;SDS011;27321;50.816;6.054;2023-06-22T10:04:38;9.05;;;8.13;;
41627;SDS011;27321;50.816;6.054;2023-06-22T10:07:40;8.75;;;7.88;;
41627;SDS011;27321;50.816;6.054;2023-06-22T10:10:43;8.30;;;7.50;;
41627;SDS011;27321;50.816;6.054;2023-06-22T10:13:44;12.43;;;9.60;;
41627;SDS011;27321;50.816;6.054;2023-06-22T10:16:45;8.85;;;7.97;;
41627;SDS011;27321;50.816;6.054;2023-06-22T10:19:46;9.95;;;7.93;;
41627;SDS011;27321;50.816;6.054;2023-06-22T10:22:47;10.00;;;9.02;;
41627;SDS011;27321;50.816;6.054;2023-06-22T10:25:48;10.10;;;9.20;;
41627;SDS011;27321;50.816;6.054;2023-06-22T10:28:49;13.50;;;12.20;;
41627;SDS011;27321;50.816;6.054;2023-06-22T10:31:50;10.80;;;9.77;;
41627;SDS011;27321;50.816;6.054;2023-06-22T10:34:51;13.70;;;11.85;;
41627;SDS011;27321;50.816;6.054;2023-06-22T10:37:52;13.82;;;11.95;;
41627;SDS011;27321;50.816;6.054;2023-06-22T10:40:54;14.80;;;13.30;;
41627;SDS011;27321;50.816;6.054;2023-06-22T10:43:55;14.32;;;12.82;;
41627;SDS011;27321;50.816;6.054;2023-06-22T10:46:57;11.88;;;10.68;;
41627;SDS011;27321;50.816;6.054;2023-06-22T10:49:57;14.93;;;13.13;;
41627;SDS011;27321;50.816;6.054;2023-06-22T10:52:58;16.02;;;13.10;;
41627;SDS011;27321;50.816;6.054;2023-06-22T10:56:00;13.30;;;11.90;;
41627;SDS011;27321;50.816;6.054;2023-06-22T10:59:01;13.55;;;12.20;;
41627;SDS011;27321;50.816;6.054;2023-06-22T11:05:03;12.77;;;11.57;;
41627;SDS011;27321;50.816;6.054;2023-06-22T11:08:04;16.98;;;13.88;;
41627;SDS011;27321;50.816;6.054;2023-06-22T11:14:06;16.95;;;15.43;;
41627;SDS011;27321;50.816;6.054;2023-06-22T11:20:08;18.67;;;16.10;;
41627;SDS011;27321;50.816;6.054;2023-06-22T11:23:12;16.55;;;14.85;;
41627;SDS011;27321;50.816;6.054;2023-06-22T11:26:19;18.60;;;15.73;;
41627;SDS011;27321;50.816;6.054;2023-06-22T11:29:21;17.75;;;13.70;;
41627;SDS011;27321;50.816;6.054;2023-06-22T11:38:24;15.32;;;13.63;;
41627;SDS011;27321;50.816;6.054;2023-06-22T11:41:25;15.32;;;13.82;;
41627;SDS011;27321;50.816;6.054;2023-06-22T11:44:27;13.90;;;12.63;;
41627;SDS011;27321;50.816;6.054;2023-06-22T11:50:29;15.23;;;13.73;;
41627;SDS011;27321;50.816;6.054;2023-06-22T11:53:34;12.95;;;11.75;;
41627;SDS011;27321;50.816;6.054;2023-06-22T11:56:35;12.48;;;11.27;;
41627;SDS011;27321;50.816;6.054;2023-06-22T12:07:22;12.25;;;9.50;;
41627;SDS011;27321;50.816;6.054;2023-06-22T12:10:26;11.13;;;10.02;;
41627;SDS011;27321;50.816;6.054;2023-06-22T12:13:44;13.52;;;11.95;;
41627;SDS011;27321;50.816;6.054;2023-06-22T12:17:18;11.25;;;10.15;;
41627;SDS011;27321;50.816;6.054;2023-06-22T12:20:29;9.68;;;8.77;;
41627;SDS011;27321;50.816;6.054;2023-06-22T12:23:37;12.57;;;11.40;;
41627;SDS011;27321;50.816;6.054;2023-06-22T12:26:46;11.13;;;10.02;;
41627;SDS011;27321;50.816;6.054;2023-06-22T12:30:21;13.20;;;11.70;;
41627;SDS011;27321;50.816;6.054;2023-06-22T12:33:29;11.98;;;10.80;;
41627;SDS011;27321;50.816;6.054;2023-06-22T12:36:30;11.55;;;10.40;;
41627;SDS011;27321;50.816;6.054;2023-06-22T12:42:39;12.85;;;11.63;;
41627;SDS011;27321;50.816;6.054;2023-06-22T12:45:40;13.63;;;12.32;;
41627;SDS011;27321;50.816;6.054;2023-06-22T12:48:41;12.15;;;10.95;;
41627;SDS011;27321;50.816;6.054;2023-06-22T12:51:45;33.10;;;13.52;;
41627;SDS011;27321;50.816;6.054;2023-06-22T12:57:55;10.85;;;9.43;;
41627;SDS011;27321;50.816;6.054;2023-06-22T13:00:56;10.65;;;9.63;;
41627;SDS011;27321;50.816;6.054;2023-06-22T13:06:59;13.57;;;12.27;;
41627;SDS011;27321;50.816;6.054;2023-06-22T13:13:01;13.50;;;12.20;;
41627;SDS011;27321;50.816;6.054;2023-06-22T13:16:02;14.35;;;12.85;;
41627;SDS011;27321;50.816;6.054;2023-06-22T13:22:04;15.57;;;14.18;;
41627;SDS011;27321;50.816;6.054;2023-06-22T13:25:06;15.30;;;12.77;;
41627;SDS011;27321;50.816;6.054;2023-06-22T13:28:07;13.82;;;12.43;;
41627;SDS011;27321;50.816;6.054;2023-06-22T13:31:08;15.43;;;14.02;;
41627;SDS011;27321;50.816;6.054;2023-06-22T13:34:09;18.83;;;17.05;;
41627;SDS011;27321;50.816;6.054;2023-06-22T13:40:12;19.92;;;17.85;;
41627;SDS011;27321;50.816;6.054;2023-06-22T13:43:13;19.02;;;16.77;;
41627;SDS011;27321;50.816;6.054;2023-06-22T13:46:14;21.10;;;18.95;;
41627;SDS011;27321;50.816;6.054;2023-06-22T13:49:15;16.55;;;14.85;;
41627;SDS011;27321;50.816;6.054;2023-06-22T13:52:16;20.40;;;18.30;;
41627;SDS011;27321;50.816;6.054;2023-06-22T13:55:18;23.25;;;20.85;;
41627;SDS011;27321;50.816;6.054;2023-06-22T13:58:21;21.73;;;19.48;;
41627;SDS011;27321;50.816;6.054;2023-06-22T14:01:22;21.55;;;19.50;;
41627;SDS011;27321;50.816;6.054;2023-06-22T14:04:23;23.77;;;21.33;;
41627;SDS011;27321;50.816;6.054;2023-06-22T14:07:24;19.27;;;17.20;;
41627;SDS011;27321;50.816;6.054;2023-06-22T14:10:25;25.02;;;22.42;;
41627;SDS011;27321;50.816;6.054;2023-06-22T14:13:26;20.73;;;18.55;;
41627;SDS011;27321;50.816;6.054;2023-06-22T14:16:27;25.13;;;22.58;;
41627;SDS011;27321;50.816;6.054;2023-06-22T14:19:28;27.42;;;24.55;;
41627;SDS011;27321;50.816;6.054;2023-06-22T14:22:29;28.10;;;25.20;;
41627;SDS011;27321;50.816;6.054;2023-06-22T14:25:30;25.50;;;23.00;;
41627;SDS011;27321;50.816;6.054;2023-06-22T14:28:31;26.85;;;24.25;;
41627;SDS011;27321;50.816;6.054;2023-06-22T14:31:31;25.55;;;23.02;;
41627;SDS011;27321;50.816;6.054;2023-06-22T14:34:33;27.00;;;24.25;;
41627;SDS011;27321;50.816;6.054;2023-06-22T14:37:36;25.95;;;23.15;;
41627;SDS011;27321;50.816;6.054;2023-06-22T14:40:37;26.67;;;23.45;;
41627;SDS011;27321;50.816;6.054;2023-06-22T14:43:38;29.65;;;26.48;;
41627;SDS011;27321;50.816;6.054;2023-06-22T14:46:38;31.92;;;28.50;;
41627;SDS011;27321;50.816;6.054;2023-06-22T14:49:39;36.70;;;33.05;;
41627;SDS011;27321;50.816;6.054;2023-06-22T14:52:41;43.63;;;38.97;;
41627;SDS011;27321;50.816;6.054;2023-06-22T14:55:42;43.63;;;38.67;;
41627;SDS011;27321;50.816;6.054;2023-06-22T14:58:43;53.88;;;48.17;;
41627;SDS011;27321;50.816;6.054;2023-06-22T15:01:47;60.22;;;53.95;;
41627;SDS011;27321;50.816;6.054;2023-06-22T15:04:48;51.33;;;45.90;;
41627;SDS011;27321;50.816;6.054;2023-06-22T15:07:49;55.53;;;49.50;;
41627;SDS011;27321;50.816;6.054;2023-06-22T15:10:50;61.38;;;51.35;;
41627;SDS011;27321;50.816;6.054;2023-06-22T15:13:52;77.88;;;61.47;;
41627;SDS011;27321;50.816;6.054;2023-06-22T15:16:53;81.72;;;72.15;;
41627;SDS011;27321;50.816;6.054;2023-06-22T15:19:54;67.43;;;60.13;;
41627;SDS011;27321;50.816;6.054;2023-06-22T15:22:56;60.67;;;54.08;;
41627;SDS011;27321;50.816;6.054;2023-06-22T15:25:58;64.30;;;57.40;;
41627;SDS011;27321;50.816;6.054;2023-06-22T15:29:05;50.20;;;44.90;;
41627;SDS011;27321;50.816;6.054;2023-06-22T15:32:06;51.13;;;42.95;;
41627;SDS011;27321;50.816;6.054;2023-06-22T15:35:07;36.42;;;32.50;;
41627;SDS011;27321;50.816;6.054;2023-06-22T15:38:08;35.90;;;32.25;;
41627;SDS011;27321;50.816;6.054;2023-06-22T15:41:09;35.03;;;31.63;;
41627;SDS011;27321;50.816;6.054;2023-06-22T15:44:10;43.10;;;38.60;;
41627;SDS011;27321;50.816;6.054;2023-06-22T15:47:11;35.33;;;31.88;;
41627;SDS011;27321;50.816;6.054;2023-06-22T15:50:12;27.17;;;24.52;;
41627;SDS011;27321;50.816;6.054;2023-06-22T15:53:13;29.38;;;26.35;;
41627;SDS011;27321;50.816;6.054;2023-06-22T15:56:14;35.75;;;31.77;;
41627;SDS011;27321;50.816;6.054;2023-06-22T15:59:16;38.53;;;34.50;;
41627;SDS011;27321;50.816;6.054;2023-06-22T16:02:17;38.30;;;34.45;;
41627;SDS011;27321;50.816;6.054;2023-06-22T16:05:18;37.75;;;34.10;;
41627;SDS011;27321;50.816;6.054;2023-06-22T16:08:19;38.70;;;34.70;;
41627;SDS011;27321;50.816;6.054;2023-06-22T16:11:20;30.85;;;27.63;;
41627;SDS011;27321;50.816;6.054;2023-06-22T16:14:21;26.83;;;24.13;;
41627;SDS011;27321;50.816;6.054;2023-06-22T16:17:22;21.45;;;19.35;;
41627;SDS011;27321;50.816;6.054;2023-06-22T16:20:26;22.75;;;20.55;;
41627;SDS011;27321;50.816;6.054;2023-06-22T16:23:27;29.92;;;26.38;;
41627;SDS011;27321;50.816;6.054;2023-06-22T16:26:37;33.45;;;29.85;;
41627;SDS011;27321;50.816;6.054;2023-06-22T16:29:40;34.25;;;30.67;;
41627;SDS011;27321;50.816;6.054;2023-06-22T16:32:51;32.40;;;29.20;;
41627;SDS011;27321;50.816;6.054;2023-06-22T16:35:58;29.08;;;26.13;;
41627;SDS011;27321;50.816;6.054;2023-06-22T16:39:01;25.50;;;22.90;;
41627;SDS011;27321;50.816;6.054;2023-06-22T16:42:03;18.95;;;17.08;;
41627;SDS011;27321;50.816;6.054;2023-06-22T16:45:04;17.20;;;15.55;;
41627;SDS011;27321;50.816;6.054;2023-06-22T16:48:06;18.77;;;17.13;;
41627;SDS011;27321;50.816;6.054;2023-06-22T16:51:08;18.23;;;16.60;;
41627;SDS011;27321;50.816;6.054;2023-06-22T16:54:12;18.73;;;17.02;;
41627;SDS011;27321;50.816;6.054;2023-06-22T16:57:36;19.70;;;17.90;;
41627;SDS011;27321;50.816;6.054;2023-06-22T17:00:37;20.35;;;18.52;;
41627;SDS011;27321;50.816;6.054;2023-06-22T17:03:44;19.30;;;17.50;;
41627;SDS011;27321;50.816;6.054;2023-06-22T17:07:35;15.80;;;14.40;;
41627;SDS011;27321;50.816;6.054;2023-06-22T17:11:23;17.08;;;15.35;;
41627;SDS011;27321;50.816;6.054;2023-06-22T17:14:33;21.85;;;19.70;;
41627;SDS011;27321;50.816;6.054;2023-06-22T17:18:11;19.42;;;17.60;;
41627;SDS011;27321;50.816;6.054;2023-06-22T17:22:20;19.48;;;17.63;;
41627;SDS011;27321;50.816;6.054;2023-06-22T17:25:22;18.17;;;16.38;;
41627;SDS011;27321;50.816;6.054;2023-06-22T17:28:24;19.73;;;17.83;;
41627;SDS011;27321;50.816;6.054;2023-06-22T17:31:35;16.13;;;14.52;;
41627;SDS011;27321;50.816;6.054;2023-06-22T17:34:38;15.85;;;14.32;;
41627;SDS011;27321;50.816;6.054;2023-06-22T17:37:49;14.75;;;13.35;;
41627;SDS011;27321;50.816;6.054;2023-06-22T17:40:59;15.30;;;13.68;;
41627;SDS011;27321;50.816;6.054;2023-06-22T17:44:09;15.02;;;13.68;;
41627;SDS011;27321;50.816;6.054;2023-06-22T17:47:13;14.88;;;13.35;;
41627;SDS011;27321;50.816;6.054;2023-06-22T17:50:25;17.02;;;15.32;;
41627;SDS011;27321;50.816;6.054;2023-06-22T17:53:29;16.20;;;14.60;;
41627;SDS011;27321;50.816;6.054;2023-06-22T17:56:36;14.10;;;12.32;;
41627;SDS011;27321;50.816;6.054;2023-06-22T17:59:38;13.00;;;11.68;;
41627;SDS011;27321;50.816;6.054;2023-06-22T18:02:39;14.25;;;12.82;;
41627;SDS011;27321;50.816;6.054;2023-06-22T18:05:45;16.17;;;14.50;;
41627;SDS011;27321;50.816;6.054;2023-06-22T18:08:47;16.20;;;14.70;;
41627;SDS011;27321;50.816;6.054;2023-06-22T18:11:51;16.23;;;14.52;;
41627;SDS011;27321;50.816;6.054;2023-06-22T18:14:55;17.52;;;15.75;;
41627;SDS011;27321;50.816;6.054;2023-06-22T18:21:00;16.38;;;14.50;;
41627;SDS011;27321;50.816;6.054;2023-06-22T18:24:07;17.08;;;15.40;;
41627;SDS011;27321;50.816;6.054;2023-06-22T18:27:10;20.02;;;15.38;;
41627;SDS011;27321;50.816;6.054;2023-06-22T18:30:12;18.40;;;15.93;;
41627;SDS011;27321;50.816;6.054;2023-06-22T18:33:14;17.08;;;15.38;;
41627;SDS011;27321;50.816;6.054;2023-06-22T18:36:16;16.67;;;15.05;;
41627;SDS011;27321;50.816;6.054;2023-06-22T18:39:22;14.68;;;13.18;;
41627;SDS011;27321;50.816;6.054;2023-06-22T18:42:24;14.63;;;13.15;;
41627;SDS011;27321;50.816;6.054;2023-06-22T18:45:26;14.65;;;13.15;;
41627;SDS011;27321;50.816;6.054;2023-06-22T18:48:35;13.57;;;12.20;;
41627;SDS011;27321;50.816;6.054;2023-06-22T18:55:03;15.80;;;13.65;;
41627;SDS011;27321;50.816;6.054;2023-06-22T18:58:13;16.60;;;14.82;;
41627;SDS011;27321;50.816;6.054;2023-06-22T19:01:16;18.73;;;15.10;;
41627;SDS011;27321;50.816;6.054;2023-06-22T19:04:19;18.38;;;16.55;;
41627;SDS011;27321;50.816;6.054;2023-06-22T19:07:21;17.52;;;15.63;;
41627;SDS011;27321;50.816;6.054;2023-06-22T19:10:51;18.02;;;16.23;;
41627;SDS011;27321;50.816;6.054;2023-06-22T19:13:52;17.02;;;15.32;;
41627;SDS011;27321;50.816;6.054;2023-06-22T19:16:58;18.48;;;16.65;;
41627;SDS011;27321;50.816;6.054;2023-06-22T19:20:00;20.88;;;18.10;;
41627;SDS011;27321;50.816;6.054;2023-06-22T19:23:06;21.77;;;19.42;;
41627;SDS011;27321;50.816;6.054;2023-06-22T19:26:27;20.40;;;17.83;;
41627;SDS011;27321;50.816;6.054;2023-06-22T19:29:28;20.38;;;18.17;;
41627;SDS011;27321;50.816;6.054;2023-06-22T19:32:30;20.90;;;18.67;;
41627;SDS011;27321;50.816;6.054;2023-06-22T19:35:31;23.33;;;20.80;;
41627;SDS011;27321;50.816;6.054;2023-06-22T19:38:33;23.10;;;20.10;;